Francis C. Settoon — WDD4746 — position and weather

sailwx.info

Track history (hours):
 
Tides and Currents Weather Stations Pressure Air Temp Water Temp Dewpoint Dewpoint Depression Visibility Wind Speed Wind Dir Waves Ship Positions

Francis C. Settoon

Owner: Settoon Towing, LLC, Gibson, LA. More information available from US FCC via Universal Licensing System and Coast Guard Vessel Documentation Center.

Last reported at 2018-Feb-18 13:21 UTC. Time now 2018-Feb-19 12:06 UTC.
Position N 29°50' W 091°57'.

Length 16 m; draft 6 m.

Type: Ship (hazmat cat B). MMSI: 367003790.

Date/timePositionNaut miles runAvg speedWind from/ knotsBaromVisibWave heightAir tempDewpointWater temp
2018-Feb-18 13:21N 29°50' W 091°57'2 6.3
2018-Feb-18 13:00N 29°50' W 091°60'3 6.6
2018-Feb-18 12:30N 29°49' W 092°03'4 7.0
2018-Feb-18 12:00N 29°48' W 092°07'3 6.1
2018-Feb-18 11:30N 29°47' W 092°10'1 1.3
2018-Feb-18 11:00N 29°47' W 092°11'0 0.1
2018-Feb-18 10:29N 29°47' W 092°11'0 0.0
2018-Feb-18 09:59N 29°47' W 092°11'0 0.0
2018-Feb-18 09:26N 29°47' W 092°11'0 0.0
2018-Feb-18 08:59N 29°47' W 092°11'0 0.0
2018-Feb-18 08:30N 29°47' W 092°11'0 0.0
2018-Feb-18 08:00N 29°47' W 092°11'0 0.0
2018-Feb-18 07:30N 29°47' W 092°11'0 0.0
2018-Feb-18 07:00N 29°47' W 092°11'0 0.0
2018-Feb-18 06:29N 29°47' W 092°11'0 0.0
2018-Feb-18 06:00N 29°47' W 092°11'0 0.0
2018-Feb-18 05:30N 29°47' W 092°11'0 0.0
2018-Feb-18 04:59N 29°47' W 092°11'0 0.0
2018-Feb-18 04:30N 29°47' W 092°11'0 0.0
2018-Feb-18 04:00N 29°47' W 092°11'0 0.1
2018-Feb-18 03:30N 29°47' W 092°11'3 5.8
2018-Feb-18 03:00N 29°48' W 092°14'3 6.9
2018-Feb-18 02:30N 29°50' W 092°18'43 6.5
2018-Feb-17 19:49N 29°56' W 093°07'2 6.6
2018-Feb-17 19:29N 29°56' W 093°09'3 6.5
2018-Feb-17 19:00N 29°58' W 093°12'3 6.2
2018-Feb-17 18:30N 30°01' W 093°14'3 5.6
2018-Feb-17 18:00N 30°03' W 093°16'3 6.3
2018-Feb-17 17:30N 30°06' W 093°18'0 0.1
2018-Feb-17 17:00N 30°06' W 093°18'0 0.0
2018-Feb-17 16:30N 30°06' W 093°18'0 0.0
2018-Feb-17 16:00N 30°06' W 093°18'0 0.0
2018-Feb-17 15:30N 30°06' W 093°18'0 0.0
2018-Feb-17 15:00N 30°06' W 093°18'0 0.0
2018-Feb-17 14:30N 30°06' W 093°18'0 0.0
2018-Feb-17 14:00N 30°06' W 093°18'0 0.0
2018-Feb-17 13:30N 30°06' W 093°18'0 0.0
2018-Feb-17 13:00N 30°06' W 093°18'0 0.0
2018-Feb-17 12:31N 30°06' W 093°18'0 0.0
2018-Feb-17 12:00N 30°06' W 093°18'0 0.0
2018-Feb-17 11:30N 30°06' W 093°18'0 0.0
2018-Feb-17 11:00N 30°06' W 093°18'0 0.0
2018-Feb-17 10:30N 30°06' W 093°18'0 0.0
2018-Feb-17 10:00N 30°06' W 093°18'0 0.0
2018-Feb-17 09:30N 30°06' W 093°18'0 0.0
2018-Feb-17 09:00N 30°06' W 093°18'0 0.0
2018-Feb-17 08:30N 30°06' W 093°18'0 0.0
2018-Feb-17 08:00N 30°06' W 093°18'0 0.0
2018-Feb-17 07:30N 30°06' W 093°18'0 0.0
2018-Feb-17 07:01N 30°06' W 093°18'0 0.0
2018-Feb-17 06:30N 30°06' W 093°18'0 0.0
2018-Feb-17 06:00N 30°06' W 093°18'0 0.0
2018-Feb-17 05:30N 30°06' W 093°18'0 0.0
2018-Feb-17 05:00N 30°06' W 093°18'0 0.0
2018-Feb-17 04:30N 30°06' W 093°18'0 0.0
2018-Feb-17 04:00N 30°06' W 093°18'0 0.0
2018-Feb-17 03:30N 30°06' W 093°18'0 0.0
2018-Feb-17 03:00N 30°06' W 093°18'2 3.3
2018-Feb-17 02:30N 30°07' W 093°20'2 3.3
2018-Feb-17 02:00N 30°08' W 093°19'0 0.0
2018-Feb-17 01:28N 30°08' W 093°19'0 0.0
2018-Feb-17 01:00N 30°08' W 093°19'0 0.0
2018-Feb-17 00:30N 30°08' W 093°19'0 0.0
2018-Feb-17 00:00N 30°08' W 093°19'0 0.0
2018-Feb-16 23:23N 30°08' W 093°19'0 0.0
2018-Feb-16 23:00N 30°08' W 093°19'0 0.0
2018-Feb-16 22:30N 30°08' W 093°19'0 0.0
2018-Feb-16 22:00N 30°08' W 093°19'0 0.0
2018-Feb-16 21:30N 30°08' W 093°19'0 0.0
2018-Feb-16 21:00N 30°08' W 093°19'0 0.0
2018-Feb-16 20:29N 30°08' W 093°19'0 0.0
2018-Feb-16 20:00N 30°08' W 093°19'0 0.0
2018-Feb-16 19:30N 30°08' W 093°19'0 0.0
2018-Feb-16 19:00N 30°08' W 093°19'0 0.0
2018-Feb-16 18:31N 30°08' W 093°19'0 0.0
2018-Feb-16 18:00N 30°08' W 093°19'0 0.1
2018-Feb-16 17:30N 30°08' W 093°19'2 3.9
2018-Feb-16 17:00N 30°06' W 093°20'2 4.7
2018-Feb-16 16:30N 30°05' W 093°17'3 5.8
2018-Feb-16 16:00N 30°03' W 093°16'3 5.5
2018-Feb-16 15:30N 30°00' W 093°14'3 5.7
2018-Feb-16 15:00N 29°58' W 093°12'0 0.0
2018-Feb-16 14:30N 29°58' W 093°12'0 0.0
2018-Feb-16 14:00N 29°58' W 093°12'0 0.0
2018-Feb-16 13:30N 29°58' W 093°12'1 1.3
2018-Feb-16 13:00N 29°58' W 093°11'6 4.0
2018-Feb-16 11:30N 29°56' W 093°04'0 0.0
2018-Feb-16 10:56N 29°56' W 093°04'0 0.0
2018-Feb-16 10:26N 29°56' W 093°04'0 0.0
2018-Feb-16 10:00N 29°56' W 093°04'0 0.0
2018-Feb-16 09:29N 29°56' W 093°04'0 0.0
2018-Feb-16 08:59N 29°56' W 093°04'0 0.0
2018-Feb-16 08:27N 29°56' W 093°04'0 0.0
2018-Feb-16 07:55N 29°56' W 093°04'0 0.0
2018-Feb-16 07:23N 29°56' W 093°04'0 0.0
2018-Feb-16 06:46N 29°56' W 093°04'0 0.0
2018-Feb-16 06:26N 29°56' W 093°04'0 0.0
2018-Feb-16 06:00N 29°56' W 093°04'0 0.0
2018-Feb-16 05:29N 29°56' W 093°04'0 0.0
2018-Feb-16 04:54N 29°56' W 093°04'0 0.0
2018-Feb-16 04:30N 29°56' W 093°04'0 0.0
2018-Feb-16 04:00N 29°56' W 093°04'0 0.0
2018-Feb-16 03:29N 29°56' W 093°04'0 0.0
2018-Feb-16 03:00N 29°56' W 093°04'0 0.0
2018-Feb-16 02:23N 29°56' W 093°04'0 0.0
2018-Feb-16 01:57N 29°56' W 093°04'0 0.0
2018-Feb-16 01:30N 29°56' W 093°04'0 0.0
2018-Feb-16 00:59N 29°56' W 093°04'0 0.0
2018-Feb-16 00:25N 29°56' W 093°04'0 0.0
2018-Feb-15 23:56N 29°56' W 093°04'0 0.0
2018-Feb-15 23:24N 29°56' W 093°04'0 0.0
2018-Feb-15 22:57N 29°56' W 093°04'0 0.0
2018-Feb-15 22:30N 29°56' W 093°04'0 0.0
2018-Feb-15 21:58N 29°56' W 093°04'0 0.0
2018-Feb-15 21:25N 29°56' W 093°04'0 0.0
2018-Feb-15 21:00N 29°56' W 093°04'0 0.0
2018-Feb-15 20:23N 29°56' W 093°04'2 5.2
2018-Feb-15 19:59N 29°56' W 093°07'3 5.9
2018-Feb-15 19:31N 29°57' W 093°10'3 6.1
2018-Feb-15 19:01N 29°59' W 093°12'3 5.5
2018-Feb-15 18:31N 30°01' W 093°14'3 5.3
2018-Feb-15 18:00N 30°03' W 093°16'3 5.8
2018-Feb-15 17:31N 30°05' W 093°18'2 4.9
2018-Feb-15 17:01N 30°07' W 093°20'1 2.3
2018-Feb-15 16:30N 30°08' W 093°19'0 0.0
2018-Feb-15 16:01N 30°08' W 093°19'0 0.0
2018-Feb-15 15:31N 30°08' W 093°19'0 0.0
2018-Feb-15 15:01N 30°08' W 093°19'0 0.0
2018-Feb-15 14:31N 30°08' W 093°19'0 0.0
2018-Feb-15 13:59N 30°08' W 093°19'0 0.0
2018-Feb-15 13:30N 30°08' W 093°19'0 0.0
2018-Feb-15 13:00N 30°08' W 093°19'0 0.0
2018-Feb-15 12:30N 30°08' W 093°19'0 0.0
2018-Feb-15 11:59N 30°08' W 093°19'0 0.0
2018-Feb-15 11:29N 30°08' W 093°19'0 0.0
2018-Feb-15 11:00N 30°08' W 093°19'0 0.0
2018-Feb-15 10:30N 30°08' W 093°19'0 0.0
2018-Feb-15 10:00N 30°08' W 093°19'0 0.0
2018-Feb-15 09:30N 30°08' W 093°19'0 0.0
2018-Feb-15 09:00N 30°08' W 093°19'0 0.0
2018-Feb-15 08:30N 30°08' W 093°19'0 0.0
2018-Feb-15 08:00N 30°08' W 093°19'0 0.0
2018-Feb-15 07:30N 30°08' W 093°19'0 0.0
2018-Feb-15 07:00N 30°08' W 093°19'0 0.0
2018-Feb-15 06:30N 30°08' W 093°19'0 0.0
2018-Feb-15 06:00N 30°08' W 093°19'0 0.0
2018-Feb-15 05:30N 30°08' W 093°19'0 0.0
2018-Feb-15 04:55N 30°08' W 093°19'0 0.0
2018-Feb-15 04:30N 30°08' W 093°19'0 0.0
2018-Feb-15 04:00N 30°08' W 093°19'0 0.0
2018-Feb-15 03:30N 30°08' W 093°19'0 0.0
2018-Feb-15 03:00N 30°08' W 093°19'0 0.0
2018-Feb-15 02:22N 30°08' W 093°19'0 0.0
2018-Feb-15 02:00N 30°08' W 093°19'0 0.0
2018-Feb-15 01:30N 30°08' W 093°19'0 0.0
2018-Feb-15 01:00N 30°08' W 093°19'0 0.3
2018-Feb-15 00:30N 30°08' W 093°20'0 0.0
2018-Feb-15 00:00N 30°08' W 093°20'0 0.0
2018-Feb-14 23:30N 30°08' W 093°20'0 0.0
2018-Feb-14 23:00N 30°08' W 093°20'0 0.0
2018-Feb-14 22:30N 30°08' W 093°20'0 0.0
2018-Feb-14 22:00N 30°08' W 093°20'0 0.4
2018-Feb-14 21:30N 30°08' W 093°20'2 4.2
2018-Feb-14 21:00N 30°06' W 093°19'2 4.7
2018-Feb-14 20:30N 30°05' W 093°17'3 5.4
2018-Feb-14 20:00N 30°02' W 093°15'3 6.1
2018-Feb-14 19:30N 29°60' W 093°13'3 6.5
2018-Feb-14 19:00N 29°57' W 093°11'6 2.3
2018-Feb-14 16:32N 29°56' W 093°04'0 0.2
2018-Feb-14 16:28N 29°56' W 093°04'0 0.0
2018-Feb-14 15:58N 29°56' W 093°04'0 0.0
2018-Feb-14 15:28N 29°56' W 093°04'0 0.0
2018-Feb-14 15:00N 29°56' W 093°04'0 0.0
2018-Feb-14 11:09N 29°56' W 093°04'0 0.0
2018-Feb-14 10:28N 29°56' W 093°04'0 0.0
2018-Feb-14 09:49N 29°56' W 093°04'0 0.0
2018-Feb-14 08:13N 29°56' W 093°04'0 0.0
2018-Feb-14 07:00N 29°56' W 093°04'0 0.0
2018-Feb-14 06:16N 29°56' W 093°04'0 0.0
2018-Feb-14 05:54N 29°56' W 093°04'2 3.1
2018-Feb-14 05:15N 29°56' W 093°07'1 5.6
2018-Feb-14 05:00N 29°56' W 093°08'0 0.1
2018-Feb-14 04:28N 29°56' W 093°08'0 0.0
2018-Feb-14 03:59N 29°56' W 093°08'0 0.0
2018-Feb-14 03:30N 29°56' W 093°08'0 0.0
2018-Feb-14 03:00N 29°56' W 093°08'0 0.0
2018-Feb-14 02:30N 29°56' W 093°08'0 0.0
2018-Feb-14 02:00N 29°56' W 093°08'0 0.0
2018-Feb-14 01:30N 29°56' W 093°08'0 0.0
2018-Feb-14 01:00N 29°56' W 093°08'0 0.0
2018-Feb-14 00:30N 29°56' W 093°08'0 0.0
2018-Feb-13 23:59N 29°56' W 093°08'0 0.0
2018-Feb-13 23:27N 29°56' W 093°08'0 0.0
2018-Feb-13 22:47N 29°56' W 093°08'0 0.0
2018-Feb-13 22:30N 29°56' W 093°08'0 0.0
2018-Feb-13 22:00N 29°56' W 093°08'1 2.1
2018-Feb-13 21:30N 29°56' W 093°09'3 6.1
2018-Feb-13 21:00N 29°58' W 093°12'3 5.8
2018-Feb-13 20:30N 30°01' W 093°14'3 5.4
2018-Feb-13 20:00N 30°03' W 093°16'3 5.7
2018-Feb-13 19:30N 30°05' W 093°17'1 3.0
2018-Feb-13 19:00N 30°06' W 093°19'1 1.1
2018-Feb-13 18:30N 30°06' W 093°19'2 4.2
2018-Feb-13 18:00N 30°08' W 093°19'0 0.1
2018-Feb-13 17:30N 30°08' W 093°19'0 0.0
2018-Feb-13 17:00N 30°08' W 093°19'0 0.0
2018-Feb-13 16:30N 30°08' W 093°19'0 0.0
2018-Feb-13 15:59N 30°08' W 093°19'0 0.0
2018-Feb-13 15:30N 30°08' W 093°19'0 0.0
2018-Feb-13 15:00N 30°08' W 093°19'0 0.0
2018-Feb-13 14:30N 30°08' W 093°19'0 0.0
2018-Feb-13 14:00N 30°08' W 093°19'0 0.0
2018-Feb-13 13:30N 30°08' W 093°19'0 0.1
2018-Feb-13 13:00N 30°08' W 093°19'0 0.2
2018-Feb-13 12:29N 30°08' W 093°19'0 0.0
2018-Feb-13 12:00N 30°08' W 093°19'0 0.0
2018-Feb-13 11:25N 30°08' W 093°19'0 0.0
2018-Feb-13 11:00N 30°08' W 093°19'0 0.0
2018-Feb-13 10:30N 30°08' W 093°19'0 0.0
2018-Feb-13 09:58N 30°08' W 093°19'0 0.0
2018-Feb-13 09:30N 30°08' W 093°19'0 0.0
2018-Feb-13 09:00N 30°08' W 093°19'0 0.0
2018-Feb-13 08:30N 30°08' W 093°19'0 0.0
2018-Feb-13 07:59N 30°08' W 093°19'0 0.0
2018-Feb-13 07:30N 30°08' W 093°19'0 0.0
2018-Feb-13 07:00N 30°08' W 093°19'0 0.0
2018-Feb-13 06:30N 30°08' W 093°19'0 0.0
2018-Feb-13 06:00N 30°08' W 093°19'0 0.0
2018-Feb-13 05:28N 30°08' W 093°19'0 0.0
2018-Feb-13 05:00N 30°08' W 093°19'0 0.0
2018-Feb-13 04:30N 30°08' W 093°19'0 0.0
2018-Feb-13 04:00N 30°08' W 093°19'0 0.0
2018-Feb-13 03:30N 30°08' W 093°19'0 0.0
2018-Feb-13 02:59N 30°08' W 093°19'0 0.0
2018-Feb-13 02:30N 30°08' W 093°19'1 1.3
2018-Feb-13 01:59N 30°08' W 093°20'2 3.8
2018-Feb-13 01:30N 30°06' W 093°19'3 5.5
2018-Feb-13 01:00N 30°04' W 093°16'0 0.6
2018-Feb-13 00:30N 30°04' W 093°16'2 3.5
2018-Feb-13 00:00N 30°02' W 093°16'3 5.7
2018-Feb-12 23:30N 30°00' W 093°14'3 6.6
2018-Feb-12 23:00N 29°58' W 093°11'  
Track history (hours):
 
Tides and Currents Weather Stations Pressure Air Temp Water Temp Dewpoint Dewpoint Depression Visibility Wind Speed Wind Dir Waves Ship Positions

Francis C. Settoon

Owner: Settoon Towing, LLC, Gibson, LA. More information available from US FCC via Universal Licensing System and Coast Guard Vessel Documentation Center.

Last reported at 2018-Feb-18 13:21 UTC. Time now 2018-Feb-19 12:06 UTC.
Position N 29°50' W 091°57'.

Length 16 m; draft 6 m.

Type: Ship (hazmat cat B). MMSI: 367003790.

Date/timePositionNaut miles runAvg speedWind from/ knotsBaromVisibWave heightAir tempDewpointWater temp
2018-Feb-18 13:21N 29°50' W 091°57'2 6.3
2018-Feb-18 13:00N 29°50' W 091°60'3 6.6
2018-Feb-18 12:30N 29°49' W 092°03'4 7.0
2018-Feb-18 12:00N 29°48' W 092°07'3 6.1
2018-Feb-18 11:30N 29°47' W 092°10'1 1.3
2018-Feb-18 11:00N 29°47' W 092°11'0 0.1
2018-Feb-18 10:29N 29°47' W 092°11'0 0.0
2018-Feb-18 09:59N 29°47' W 092°11'0 0.0
2018-Feb-18 09:26N 29°47' W 092°11'0 0.0
2018-Feb-18 08:59N 29°47' W 092°11'0 0.0
2018-Feb-18 08:30N 29°47' W 092°11'0 0.0
2018-Feb-18 08:00N 29°47' W 092°11'0 0.0
2018-Feb-18 07:30N 29°47' W 092°11'0 0.0
2018-Feb-18 07:00N 29°47' W 092°11'0 0.0
2018-Feb-18 06:29N 29°47' W 092°11'0 0.0
2018-Feb-18 06:00N 29°47' W 092°11'0 0.0
2018-Feb-18 05:30N 29°47' W 092°11'0 0.0
2018-Feb-18 04:59N 29°47' W 092°11'0 0.0
2018-Feb-18 04:30N 29°47' W 092°11'0 0.0
2018-Feb-18 04:00N 29°47' W 092°11'0 0.1
2018-Feb-18 03:30N 29°47' W 092°11'3 5.8
2018-Feb-18 03:00N 29°48' W 092°14'3 6.9
2018-Feb-18 02:30N 29°50' W 092°18'43 6.5
2018-Feb-17 19:49N 29°56' W 093°07'2 6.6
2018-Feb-17 19:29N 29°56' W 093°09'3 6.5
2018-Feb-17 19:00N 29°58' W 093°12'3 6.2
2018-Feb-17 18:30N 30°01' W 093°14'3 5.6
2018-Feb-17 18:00N 30°03' W 093°16'3 6.3
2018-Feb-17 17:30N 30°06' W 093°18'0 0.1
2018-Feb-17 17:00N 30°06' W 093°18'0 0.0
2018-Feb-17 16:30N 30°06' W 093°18'0 0.0
2018-Feb-17 16:00N 30°06' W 093°18'0 0.0
2018-Feb-17 15:30N 30°06' W 093°18'0 0.0
2018-Feb-17 15:00N 30°06' W 093°18'0 0.0
2018-Feb-17 14:30N 30°06' W 093°18'0 0.0
2018-Feb-17 14:00N 30°06' W 093°18'0 0.0
2018-Feb-17 13:30N 30°06' W 093°18'0 0.0
2018-Feb-17 13:00N 30°06' W 093°18'0 0.0
2018-Feb-17 12:31N 30°06' W 093°18'0 0.0
2018-Feb-17 12:00N 30°06' W 093°18'0 0.0
2018-Feb-17 11:30N 30°06' W 093°18'0 0.0
2018-Feb-17 11:00N 30°06' W 093°18'0 0.0
2018-Feb-17 10:30N 30°06' W 093°18'0 0.0
2018-Feb-17 10:00N 30°06' W 093°18'0 0.0
2018-Feb-17 09:30N 30°06' W 093°18'0 0.0
2018-Feb-17 09:00N 30°06' W 093°18'0 0.0
2018-Feb-17 08:30N 30°06' W 093°18'0 0.0
2018-Feb-17 08:00N 30°06' W 093°18'0 0.0
2018-Feb-17 07:30N 30°06' W 093°18'0 0.0
2018-Feb-17 07:01N 30°06' W 093°18'0 0.0
2018-Feb-17 06:30N 30°06' W 093°18'0 0.0
2018-Feb-17 06:00N 30°06' W 093°18'0 0.0
2018-Feb-17 05:30N 30°06' W 093°18'0 0.0
2018-Feb-17 05:00N 30°06' W 093°18'0 0.0
2018-Feb-17 04:30N 30°06' W 093°18'0 0.0
2018-Feb-17 04:00N 30°06' W 093°18'0 0.0
2018-Feb-17 03:30N 30°06' W 093°18'0 0.0
2018-Feb-17 03:00N 30°06' W 093°18'2 3.3
2018-Feb-17 02:30N 30°07' W 093°20'2 3.3
2018-Feb-17 02:00N 30°08' W 093°19'0 0.0
2018-Feb-17 01:28N 30°08' W 093°19'0 0.0
2018-Feb-17 01:00N 30°08' W 093°19'0 0.0
2018-Feb-17 00:30N 30°08' W 093°19'0 0.0
2018-Feb-17 00:00N 30°08' W 093°19'0 0.0
2018-Feb-16 23:23N 30°08' W 093°19'0 0.0
2018-Feb-16 23:00N 30°08' W 093°19'0 0.0
2018-Feb-16 22:30N 30°08' W 093°19'0 0.0
2018-Feb-16 22:00N 30°08' W 093°19'0 0.0
2018-Feb-16 21:30N 30°08' W 093°19'0 0.0
2018-Feb-16 21:00N 30°08' W 093°19'0 0.0
2018-Feb-16 20:29N 30°08' W 093°19'0 0.0
2018-Feb-16 20:00N 30°08' W 093°19'0 0.0
2018-Feb-16 19:30N 30°08' W 093°19'0 0.0
2018-Feb-16 19:00N 30°08' W 093°19'0 0.0
2018-Feb-16 18:31N 30°08' W 093°19'0 0.0
2018-Feb-16 18:00N 30°08' W 093°19'0 0.1
2018-Feb-16 17:30N 30°08' W 093°19'2 3.9
2018-Feb-16 17:00N 30°06' W 093°20'2 4.7
2018-Feb-16 16:30N 30°05' W 093°17'3 5.8
2018-Feb-16 16:00N 30°03' W 093°16'3 5.5
2018-Feb-16 15:30N 30°00' W 093°14'3 5.7
2018-Feb-16 15:00N 29°58' W 093°12'0 0.0
2018-Feb-16 14:30N 29°58' W 093°12'0 0.0
2018-Feb-16 14:00N 29°58' W 093°12'0 0.0
2018-Feb-16 13:30N 29°58' W 093°12'1 1.3
2018-Feb-16 13:00N 29°58' W 093°11'6 4.0
2018-Feb-16 11:30N 29°56' W 093°04'0 0.0
2018-Feb-16 10:56N 29°56' W 093°04'0 0.0
2018-Feb-16 10:26N 29°56' W 093°04'0 0.0
2018-Feb-16 10:00N 29°56' W 093°04'0 0.0
2018-Feb-16 09:29N 29°56' W 093°04'0 0.0
2018-Feb-16 08:59N 29°56' W 093°04'0 0.0
2018-Feb-16 08:27N 29°56' W 093°04'0 0.0
2018-Feb-16 07:55N 29°56' W 093°04'0 0.0
2018-Feb-16 07:23N 29°56' W 093°04'0 0.0
2018-Feb-16 06:46N 29°56' W 093°04'0 0.0
2018-Feb-16 06:26N 29°56' W 093°04'0 0.0
2018-Feb-16 06:00N 29°56' W 093°04'0 0.0
2018-Feb-16 05:29N 29°56' W 093°04'0 0.0
2018-Feb-16 04:54N 29°56' W 093°04'0 0.0
2018-Feb-16 04:30N 29°56' W 093°04'0 0.0
2018-Feb-16 04:00N 29°56' W 093°04'0 0.0
2018-Feb-16 03:29N 29°56' W 093°04'0 0.0
2018-Feb-16 03:00N 29°56' W 093°04'0 0.0
2018-Feb-16 02:23N 29°56' W 093°04'0 0.0
2018-Feb-16 01:57N 29°56' W 093°04'0 0.0
2018-Feb-16 01:30N 29°56' W 093°04'0 0.0
2018-Feb-16 00:59N 29°56' W 093°04'0 0.0
2018-Feb-16 00:25N 29°56' W 093°04'0 0.0
2018-Feb-15 23:56N 29°56' W 093°04'0 0.0
2018-Feb-15 23:24N 29°56' W 093°04'0 0.0
2018-Feb-15 22:57N 29°56' W 093°04'0 0.0
2018-Feb-15 22:30N 29°56' W 093°04'0 0.0
2018-Feb-15 21:58N 29°56' W 093°04'0 0.0
2018-Feb-15 21:25N 29°56' W 093°04'0 0.0
2018-Feb-15 21:00N 29°56' W 093°04'0 0.0
2018-Feb-15 20:23N 29°56' W 093°04'2 5.2
2018-Feb-15 19:59N 29°56' W 093°07'3 5.9
2018-Feb-15 19:31N 29°57' W 093°10'3 6.1
2018-Feb-15 19:01N 29°59' W 093°12'3 5.5
2018-Feb-15 18:31N 30°01' W 093°14'3 5.3
2018-Feb-15 18:00N 30°03' W 093°16'3 5.8
2018-Feb-15 17:31N 30°05' W 093°18'2 4.9
2018-Feb-15 17:01N 30°07' W 093°20'1 2.3
2018-Feb-15 16:30N 30°08' W 093°19'0 0.0
2018-Feb-15 16:01N 30°08' W 093°19'0 0.0
2018-Feb-15 15:31N 30°08' W 093°19'0 0.0
2018-Feb-15 15:01N 30°08' W 093°19'0 0.0
2018-Feb-15 14:31N 30°08' W 093°19'0 0.0
2018-Feb-15 13:59N 30°08' W 093°19'0 0.0
2018-Feb-15 13:30N 30°08' W 093°19'0 0.0
2018-Feb-15 13:00N 30°08' W 093°19'0 0.0
2018-Feb-15 12:30N 30°08' W 093°19'0 0.0
2018-Feb-15 11:59N 30°08' W 093°19'0 0.0
2018-Feb-15 11:29N 30°08' W 093°19'0 0.0
2018-Feb-15 11:00N 30°08' W 093°19'0 0.0
2018-Feb-15 10:30N 30°08' W 093°19'0 0.0
2018-Feb-15 10:00N 30°08' W 093°19'0 0.0
2018-Feb-15 09:30N 30°08' W 093°19'0 0.0
2018-Feb-15 09:00N 30°08' W 093°19'0 0.0
2018-Feb-15 08:30N 30°08' W 093°19'0 0.0
2018-Feb-15 08:00N 30°08' W 093°19'0 0.0
2018-Feb-15 07:30N 30°08' W 093°19'0 0.0
2018-Feb-15 07:00N 30°08' W 093°19'0 0.0
2018-Feb-15 06:30N 30°08' W 093°19'0 0.0
2018-Feb-15 06:00N 30°08' W 093°19'0 0.0
2018-Feb-15 05:30N 30°08' W 093°19'0 0.0
2018-Feb-15 04:55N 30°08' W 093°19'0 0.0
2018-Feb-15 04:30N 30°08' W 093°19'0 0.0
2018-Feb-15 04:00N 30°08' W 093°19'0 0.0
2018-Feb-15 03:30N 30°08' W 093°19'0 0.0
2018-Feb-15 03:00N 30°08' W 093°19'0 0.0
2018-Feb-15 02:22N 30°08' W 093°19'0 0.0
2018-Feb-15 02:00N 30°08' W 093°19'0 0.0
2018-Feb-15 01:30N 30°08' W 093°19'0 0.0
2018-Feb-15 01:00N 30°08' W 093°19'0 0.3
2018-Feb-15 00:30N 30°08' W 093°20'0 0.0
2018-Feb-15 00:00N 30°08' W 093°20'0 0.0
2018-Feb-14 23:30N 30°08' W 093°20'0 0.0
2018-Feb-14 23:00N 30°08' W 093°20'0 0.0
2018-Feb-14 22:30N 30°08' W 093°20'0 0.0
2018-Feb-14 22:00N 30°08' W 093°20'0 0.4
2018-Feb-14 21:30N 30°08' W 093°20'2 4.2
2018-Feb-14 21:00N 30°06' W 093°19'2 4.7
2018-Feb-14 20:30N 30°05' W 093°17'3 5.4
2018-Feb-14 20:00N 30°02' W 093°15'3 6.1
2018-Feb-14 19:30N 29°60' W 093°13'3 6.5
2018-Feb-14 19:00N 29°57' W 093°11'6 2.3
2018-Feb-14 16:32N 29°56' W 093°04'0 0.2
2018-Feb-14 16:28N 29°56' W 093°04'0 0.0
2018-Feb-14 15:58N 29°56' W 093°04'0 0.0
2018-Feb-14 15:28N 29°56' W 093°04'0 0.0
2018-Feb-14 15:00N 29°56' W 093°04'0 0.0
2018-Feb-14 11:09N 29°56' W 093°04'0 0.0
2018-Feb-14 10:28N 29°56' W 093°04'0 0.0
2018-Feb-14 09:49N 29°56' W 093°04'0 0.0
2018-Feb-14 08:13N 29°56' W 093°04'0 0.0
2018-Feb-14 07:00N 29°56' W 093°04'0 0.0
2018-Feb-14 06:16N 29°56' W 093°04'0 0.0
2018-Feb-14 05:54N 29°56' W 093°04'2 3.1
2018-Feb-14 05:15N 29°56' W 093°07'1 5.6
2018-Feb-14 05:00N 29°56' W 093°08'0 0.1
2018-Feb-14 04:28N 29°56' W 093°08'0 0.0
2018-Feb-14 03:59N 29°56' W 093°08'0 0.0
2018-Feb-14 03:30N 29°56' W 093°08'0 0.0
2018-Feb-14 03:00N 29°56' W 093°08'0 0.0
2018-Feb-14 02:30N 29°56' W 093°08'0 0.0
2018-Feb-14 02:00N 29°56' W 093°08'0 0.0
2018-Feb-14 01:30N 29°56' W 093°08'0 0.0
2018-Feb-14 01:00N 29°56' W 093°08'0 0.0
2018-Feb-14 00:30N 29°56' W 093°08'0 0.0
2018-Feb-13 23:59N 29°56' W 093°08'0 0.0
2018-Feb-13 23:27N 29°56' W 093°08'0 0.0
2018-Feb-13 22:47N 29°56' W 093°08'0 0.0
2018-Feb-13 22:30N 29°56' W 093°08'0 0.0
2018-Feb-13 22:00N 29°56' W 093°08'1 2.1
2018-Feb-13 21:30N 29°56' W 093°09'3 6.1
2018-Feb-13 21:00N 29°58' W 093°12'3 5.8
2018-Feb-13 20:30N 30°01' W 093°14'3 5.4
2018-Feb-13 20:00N 30°03' W 093°16'3 5.7
2018-Feb-13 19:30N 30°05' W 093°17'1 3.0
2018-Feb-13 19:00N 30°06' W 093°19'1 1.1
2018-Feb-13 18:30N 30°06' W 093°19'2 4.2
2018-Feb-13 18:00N 30°08' W 093°19'0 0.1
2018-Feb-13 17:30N 30°08' W 093°19'0 0.0
2018-Feb-13 17:00N 30°08' W 093°19'0 0.0
2018-Feb-13 16:30N 30°08' W 093°19'0 0.0
2018-Feb-13 15:59N 30°08' W 093°19'0 0.0
2018-Feb-13 15:30N 30°08' W 093°19'0 0.0
2018-Feb-13 15:00N 30°08' W 093°19'0 0.0
2018-Feb-13 14:30N 30°08' W 093°19'0 0.0
2018-Feb-13 14:00N 30°08' W 093°19'0 0.0
2018-Feb-13 13:30N 30°08' W 093°19'0 0.1
2018-Feb-13 13:00N 30°08' W 093°19'0 0.2
2018-Feb-13 12:29N 30°08' W 093°19'0 0.0
2018-Feb-13 12:00N 30°08' W 093°19'0 0.0
2018-Feb-13 11:25N 30°08' W 093°19'0 0.0
2018-Feb-13 11:00N 30°08' W 093°19'0 0.0
2018-Feb-13 10:30N 30°08' W 093°19'0 0.0
2018-Feb-13 09:58N 30°08' W 093°19'0 0.0
2018-Feb-13 09:30N 30°08' W 093°19'0 0.0
2018-Feb-13 09:00N 30°08' W 093°19'0 0.0
2018-Feb-13 08:30N 30°08' W 093°19'0 0.0
2018-Feb-13 07:59N 30°08' W 093°19'0 0.0
2018-Feb-13 07:30N 30°08' W 093°19'0 0.0
2018-Feb-13 07:00N 30°08' W 093°19'0 0.0
2018-Feb-13 06:30N 30°08' W 093°19'0 0.0
2018-Feb-13 06:00N 30°08' W 093°19'0 0.0
2018-Feb-13 05:28N 30°08' W 093°19'0 0.0
2018-Feb-13 05:00N 30°08' W 093°19'0 0.0
2018-Feb-13 04:30N 30°08' W 093°19'0 0.0
2018-Feb-13 04:00N 30°08' W 093°19'0 0.0
2018-Feb-13 03:30N 30°08' W 093°19'0 0.0
2018-Feb-13 02:59N 30°08' W 093°19'0 0.0
2018-Feb-13 02:30N 30°08' W 093°19'1 1.3
2018-Feb-13 01:59N 30°08' W 093°20'2 3.8
2018-Feb-13 01:30N 30°06' W 093°19'3 5.5
2018-Feb-13 01:00N 30°04' W 093°16'0 0.6
2018-Feb-13 00:30N 30°04' W 093°16'2 3.5
2018-Feb-13 00:00N 30°02' W 093°16'3 5.7
2018-Feb-12 23:30N 30°00' W 093°14'3 6.6
2018-Feb-12 23:00N 29°58' W 093°11'  

Dump ship's entire track history